createdAt,value
2017-09-10T00:00:29.246Z,12.70
2017-09-10T00:02:57.529Z,12.60
2017-09-10T00:05:25.814Z,12.60
2017-09-10T00:07:54.107Z,12.60
2017-09-10T00:10:22.379Z,12.50
2017-09-10T00:12:50.650Z,12.40
2017-09-10T00:15:18.886Z,12.20
2017-09-10T00:17:47.916Z,12.00
2017-09-10T00:20:16.181Z,12.00
2017-09-10T00:22:44.428Z,12.00
2017-09-10T00:25:12.696Z,12.00
2017-09-10T00:27:41.859Z,12.00
2017-09-10T00:30:10.102Z,11.90
2017-09-10T00:32:39.150Z,11.90
2017-09-10T00:35:07.439Z,11.90
2017-09-10T00:37:35.744Z,11.90
2017-09-10T00:40:04.785Z,11.80
2017-09-10T00:42:33.057Z,11.80
2017-09-10T00:45:01.347Z,11.80
2017-09-10T00:47:29.644Z,11.70
2017-09-10T00:49:57.893Z,11.60
2017-09-10T00:52:26.177Z,11.50
2017-09-10T00:54:54.449Z,11.40
2017-09-10T00:57:22.792Z,11.30
2017-09-10T00:59:51.056Z,11.30
2017-09-10T01:02:20.113Z,11.30
2017-09-10T01:04:48.385Z,11.30
2017-09-10T01:07:16.629Z,11.20
2017-09-10T01:09:44.935Z,11.20
2017-09-10T01:12:13.218Z,11.10
2017-09-10T01:14:41.587Z,11.10
2017-09-10T01:17:10.803Z,11.00
2017-09-10T01:19:39.192Z,11.00
2017-09-10T01:22:07.491Z,11.00
2017-09-10T01:24:36.562Z,11.10
2017-09-10T01:27:04.877Z,11.10
2017-09-10T01:29:33.131Z,11.10
2017-09-10T01:32:01.392Z,11.10
2017-09-10T01:34:29.656Z,11.00
2017-09-10T01:36:58.770Z,10.80
2017-09-10T01:39:27.056Z,10.80
2017-09-10T01:41:55.323Z,10.80
2017-09-10T01:44:23.595Z,10.80
2017-09-10T01:46:51.858Z,10.70
2017-09-10T01:49:20.103Z,10.70
2017-09-10T01:51:48.392Z,10.60
2017-09-10T01:54:16.685Z,10.60
2017-09-10T01:56:44.945Z,10.70
2017-09-10T01:59:13.212Z,10.70
2017-09-10T02:01:42.235Z,10.60
2017-09-10T02:04:10.517Z,10.60
2017-09-10T02:06:38.797Z,10.70
2017-09-10T02:09:07.864Z,10.70
2017-09-10T02:11:36.177Z,10.70
2017-09-10T02:14:04.442Z,10.70
2017-09-10T02:16:32.699Z,10.80
2017-09-10T02:19:00.955Z,10.80
2017-09-10T02:21:29.205Z,10.70
2017-09-10T02:23:57.457Z,10.60
2017-09-10T02:26:25.702Z,10.60
2017-09-10T02:28:53.968Z,10.60
2017-09-10T02:31:23.004Z,10.60
2017-09-10T02:33:51.231Z,10.50
2017-09-10T02:36:20.277Z,10.60
2017-09-10T02:38:49.310Z,10.60
2017-09-10T02:41:17.567Z,10.60
2017-09-10T02:43:46.594Z,10.70
2017-09-10T02:46:14.870Z,10.70
2017-09-10T02:48:43.105Z,10.70
2017-09-10T02:51:12.098Z,10.50
2017-09-10T02:53:40.347Z,10.60
2017-09-10T02:56:08.606Z,10.50
2017-09-10T02:58:37.629Z,10.30
2017-09-10T03:01:05.884Z,10.30
2017-09-10T03:03:34.912Z,10.20
2017-09-10T03:06:03.183Z,10.20
2017-09-10T03:08:31.451Z,10.10
2017-09-10T03:10:59.729Z,10.10
2017-09-10T03:13:27.966Z,10.20
2017-09-10T03:15:56.267Z,10.20
2017-09-10T03:18:25.267Z,10.20
2017-09-10T03:20:53.575Z,10.20
2017-09-10T03:23:21.827Z,10.20
2017-09-10T03:25:50.053Z,10.40
2017-09-10T03:28:18.350Z,10.50
2017-09-10T03:30:47.130Z,10.50
2017-09-10T03:33:15.398Z,10.30
2017-09-10T03:35:43.658Z,10.20
2017-09-10T03:38:11.914Z,10.10
2017-09-10T03:40:40.173Z,10.00
2017-09-10T03:43:08.424Z,10.00
2017-09-10T03:45:37.473Z,10.00
2017-09-10T03:48:06.477Z,10.10
2017-09-10T03:50:34.751Z,10.10
2017-09-10T03:53:03.796Z,10.00
2017-09-10T03:55:32.056Z,9.90
2017-09-10T03:58:01.106Z,9.80
2017-09-10T04:00:29.349Z,9.80
2017-09-10T04:02:58.355Z,9.80
2017-09-10T04:05:26.699Z,9.70
2017-09-10T04:07:54.955Z,9.80
2017-09-10T04:10:24.007Z,9.70
2017-09-10T04:12:52.649Z,9.60
2017-09-10T04:15:20.919Z,9.70
2017-09-10T04:17:49.149Z,9.70
2017-09-10T04:20:17.398Z,9.70
2017-09-10T04:22:45.649Z,9.60
2017-09-10T04:25:13.900Z,9.70
2017-09-10T04:27:42.146Z,9.60
2017-09-10T04:30:11.166Z,9.60
2017-09-10T04:32:39.424Z,9.60
2017-09-10T04:35:08.431Z,9.60
2017-09-10T04:37:36.666Z,9.60
2017-09-10T04:40:05.716Z,9.50
2017-09-10T04:42:33.963Z,9.50
2017-09-10T04:45:02.215Z,9.40
2017-09-10T04:47:30.443Z,9.40
2017-09-10T04:49:58.666Z,9.30
2017-09-10T04:52:27.712Z,9.40
2017-09-10T04:54:55.951Z,9.40
2017-09-10T04:57:24.245Z,9.40
2017-09-10T04:59:53.222Z,9.60
2017-09-10T05:02:22.270Z,9.60
2017-09-10T05:04:51.312Z,9.70
2017-09-10T05:07:20.353Z,9.80
2017-09-10T05:09:48.846Z,9.70
2017-09-10T05:12:17.143Z,9.80
2017-09-10T05:14:45.409Z,9.80
2017-09-10T05:17:13.673Z,9.80
2017-09-10T05:19:41.962Z,9.90
2017-09-10T05:22:10.966Z,10.10
2017-09-10T05:24:39.214Z,10.10
2017-09-10T05:27:08.279Z,10.20
2017-09-10T05:29:37.334Z,10.20
2017-09-10T05:32:05.579Z,10.20
2017-09-10T05:34:33.828Z,10.20
2017-09-10T05:37:02.849Z,10.10
2017-09-10T05:39:31.124Z,10.10
2017-09-10T05:41:59.389Z,10.20
2017-09-10T05:44:27.715Z,10.30
2017-09-10T05:46:55.987Z,10.40
2017-09-10T05:49:24.243Z,10.40
2017-09-10T05:51:52.519Z,10.50
2017-09-10T05:54:20.774Z,10.50
2017-09-10T05:56:49.043Z,10.60
2017-09-10T05:59:17.300Z,10.80
2017-09-10T06:01:45.560Z,10.90
2017-09-10T06:04:13.817Z,10.90
2017-09-10T06:06:42.091Z,11.00
2017-09-10T06:09:10.352Z,11.10
2017-09-10T06:11:38.621Z,11.10
2017-09-10T06:14:06.880Z,11.30
2017-09-10T06:16:35.936Z,11.20
2017-09-10T06:19:04.223Z,11.20
2017-09-10T06:21:32.479Z,11.20
2017-09-10T06:24:00.733Z,11.30
2017-09-10T06:26:29.015Z,11.50
2017-09-10T06:28:57.271Z,11.60
2017-09-10T06:31:25.548Z,11.90
2017-09-10T06:33:54.615Z,12.10
2017-09-10T06:36:22.887Z,12.10
2017-09-10T06:38:51.126Z,12.20
2017-09-10T06:41:20.160Z,12.30
2017-09-10T06:43:48.417Z,12.30
2017-09-10T06:46:16.684Z,12.30
2017-09-10T06:48:44.947Z,12.50
2017-09-10T06:51:13.238Z,12.80
2017-09-10T06:53:41.492Z,12.80
2017-09-10T06:56:09.767Z,12.80
2017-09-10T06:58:38.038Z,13.00
2017-09-10T07:01:06.290Z,13.10
2017-09-10T07:03:35.326Z,13.30
2017-09-10T07:06:03.593Z,13.20
2017-09-10T07:08:31.883Z,13.30
2017-09-10T07:11:00.136Z,13.50
2017-09-10T07:13:28.392Z,13.60
2017-09-10T07:15:57.461Z,13.60
2017-09-10T07:18:25.722Z,13.60
2017-09-10T07:20:53.997Z,13.60
2017-09-10T07:23:22.263Z,13.60
2017-09-10T07:25:50.527Z,13.50
2017-09-10T07:28:18.812Z,13.40
2017-09-10T07:30:47.026Z,13.50
2017-09-10T07:33:15.276Z,13.60
2017-09-10T07:35:43.535Z,13.70
2017-09-10T07:38:11.803Z,13.70
2017-09-10T07:40:40.061Z,13.60
2017-09-10T07:43:08.356Z,13.60
2017-09-10T07:45:36.635Z,13.70
2017-09-10T07:48:04.931Z,13.80
2017-09-10T07:50:33.198Z,13.90
2017-09-10T07:53:01.468Z,14.00
2017-09-10T07:55:29.747Z,14.20
2017-09-10T07:57:58.015Z,14.40
2017-09-10T08:00:27.045Z,14.20
2017-09-10T08:02:55.332Z,14.20
2017-09-10T08:05:24.364Z,14.40
2017-09-10T08:07:52.601Z,14.40
2017-09-10T08:10:20.861Z,14.30
2017-09-10T08:12:49.153Z,14.30
2017-09-10T08:15:17.396Z,14.20
2017-09-10T08:17:45.750Z,14.20
2017-09-10T08:20:13.998Z,14.30
2017-09-10T08:22:42.269Z,14.10
2017-09-10T08:25:10.516Z,14.00
2017-09-10T08:27:38.742Z,14.00
2017-09-10T08:30:06.999Z,14.10
2017-09-10T08:32:36.023Z,14.00
2017-09-10T08:35:04.324Z,14.00
2017-09-10T08:37:32.585Z,13.90
2017-09-10T08:40:01.655Z,14.30
2017-09-10T08:42:29.896Z,14.30
2017-09-10T08:44:58.150Z,14.50
2017-09-10T08:47:26.470Z,14.70
2017-09-10T08:49:54.782Z,14.90
2017-09-10T08:52:23.081Z,15.20
2017-09-10T08:54:52.138Z,15.90
2017-09-10T08:57:21.305Z,15.90
2017-09-10T08:59:49.530Z,16.10
2017-09-10T09:02:26.420Z,16.20
2017-09-10T09:04:57.599Z,16.20
2017-09-10T09:07:25.930Z,16.50
2017-09-10T09:09:54.180Z,16.60
2017-09-10T09:12:23.219Z,16.90
2017-09-10T09:14:51.476Z,16.90
2017-09-10T09:17:19.740Z,17.10
2017-09-10T09:19:48.008Z,16.90
2017-09-10T09:22:16.251Z,17.00
2017-09-10T09:24:44.521Z,16.60
2017-09-10T09:27:13.525Z,16.80
2017-09-10T09:29:41.799Z,16.80
2017-09-10T09:32:10.819Z,17.00
2017-09-10T09:34:39.038Z,17.00
2017-09-10T09:37:07.371Z,17.20
2017-09-10T09:39:35.627Z,17.30
2017-09-10T09:42:03.969Z,17.30
2017-09-10T09:44:32.238Z,17.20
2017-09-10T09:47:00.543Z,17.00
2017-09-10T09:49:28.790Z,17.10
2017-09-10T09:51:58.043Z,16.70
2017-09-10T09:54:26.647Z,16.90
2017-09-10T09:56:54.899Z,16.80
2017-09-10T09:59:23.986Z,16.70
2017-09-10T10:01:53.039Z,16.70
2017-09-10T10:04:21.325Z,16.70
2017-09-10T10:06:50.428Z,16.70
2017-09-10T10:09:18.690Z,16.70
2017-09-10T10:11:50.566Z,17.00
2017-09-10T10:14:34.453Z,16.80
2017-09-10T10:17:02.844Z,16.80
2017-09-10T10:19:31.094Z,17.10
2017-09-10T10:22:00.283Z,17.20
2017-09-10T10:24:28.615Z,17.30
2017-09-10T10:26:56.857Z,17.40
2017-09-10T10:29:25.894Z,17.70
2017-09-10T10:31:57.160Z,17.70
2017-09-10T10:34:25.411Z,17.90
2017-09-10T10:36:53.723Z,18.20
2017-09-10T10:39:21.993Z,18.30
2017-09-10T10:41:50.300Z,18.10
2017-09-10T10:44:18.551Z,18.30
2017-09-10T10:46:46.828Z,18.30
2017-09-10T10:49:15.100Z,18.40
2017-09-10T10:51:44.128Z,17.60
2017-09-10T10:54:13.164Z,17.50
2017-09-10T10:56:41.429Z,17.40
2017-09-10T10:59:09.683Z,17.70
2017-09-10T11:01:38.277Z,17.30
2017-09-10T11:04:06.542Z,17.10
2017-09-10T11:06:34.780Z,17.30
2017-09-10T11:09:03.125Z,17.70
2017-09-10T11:11:31.385Z,17.80
2017-09-10T11:13:59.659Z,17.90
2017-09-10T11:16:27.915Z,18.00
2017-09-10T11:18:56.967Z,18.40
2017-09-10T11:21:25.347Z,18.30
2017-09-10T11:23:53.638Z,18.20
2017-09-10T11:26:21.918Z,18.30
2017-09-10T11:28:50.259Z,18.20
2017-09-10T11:31:18.494Z,18.20
2017-09-10T11:33:46.756Z,18.00
2017-09-10T11:36:15.167Z,17.50
2017-09-10T11:38:43.423Z,17.50
2017-09-10T11:41:11.759Z,17.50
2017-09-10T11:43:40.147Z,17.70
2017-09-10T11:46:08.401Z,17.70
2017-09-10T11:48:36.655Z,18.00
2017-09-10T11:51:04.958Z,18.20
2017-09-10T11:53:33.249Z,18.40
2017-09-10T11:56:01.495Z,18.70
2017-09-10T11:58:30.548Z,18.80
2017-09-10T12:00:58.835Z,18.80
2017-09-10T12:03:27.098Z,18.90
2017-09-10T12:05:55.420Z,19.00
2017-09-10T12:08:23.715Z,19.00
2017-09-10T12:10:51.992Z,19.10
2017-09-10T12:13:20.266Z,19.30
2017-09-10T12:15:48.522Z,19.30
2017-09-10T12:18:16.811Z,19.30
2017-09-10T12:20:45.069Z,19.10
2017-09-10T12:23:13.421Z,18.90
2017-09-10T12:25:41.676Z,18.60
2017-09-10T12:28:09.929Z,18.30
2017-09-10T12:30:38.178Z,18.40
2017-09-10T12:33:07.297Z,18.60
2017-09-10T12:35:36.290Z,18.60
2017-09-10T12:38:04.555Z,18.60
2017-09-10T12:40:32.839Z,18.70
2017-09-10T12:43:01.896Z,19.00
2017-09-10T12:45:30.161Z,18.90
2017-09-10T12:47:58.424Z,18.90
2017-09-10T12:50:27.759Z,18.80
2017-09-10T12:52:56.047Z,18.70
2017-09-10T12:55:25.064Z,18.70
2017-09-10T12:57:53.344Z,18.60
2017-09-10T13:00:21.615Z,18.60
2017-09-10T13:02:49.906Z,18.10
2017-09-10T13:05:18.612Z,17.90
2017-09-10T13:07:46.866Z,17.80
2017-09-10T13:10:15.910Z,18.20
2017-09-10T13:12:44.153Z,18.20
2017-09-10T13:15:12.457Z,18.00
2017-09-10T13:17:40.735Z,18.00
2017-09-10T13:20:09.003Z,18.10
2017-09-10T13:22:37.223Z,18.10
2017-09-10T13:25:06.367Z,18.50
2017-09-10T13:27:34.598Z,18.40
2017-09-10T13:30:03.611Z,18.40
2017-09-10T13:32:31.915Z,18.40
2017-09-10T13:35:00.185Z,18.30
2017-09-10T13:37:28.485Z,18.40
2017-09-10T13:39:56.733Z,18.40
2017-09-10T13:42:25.770Z,18.50
2017-09-10T13:44:54.117Z,18.50
2017-09-10T13:47:22.425Z,18.80
2017-09-10T13:49:50.653Z,18.70
2017-09-10T13:52:18.963Z,18.60
2017-09-10T13:54:47.195Z,18.50
2017-09-10T13:57:16.247Z,18.40
2017-09-10T13:59:44.532Z,18.40
2017-09-10T14:02:13.533Z,18.90
2017-09-10T14:04:41.807Z,18.90
2017-09-10T14:07:10.097Z,19.10
2017-09-10T14:09:38.347Z,18.90
2017-09-10T14:12:06.589Z,18.90
2017-09-10T14:14:34.854Z,18.80
2017-09-10T14:17:03.909Z,18.70
2017-09-10T14:19:32.145Z,18.70
2017-09-10T14:22:00.398Z,18.80
2017-09-10T14:24:28.674Z,18.90
2017-09-10T14:26:56.942Z,19.20
2017-09-10T14:29:25.167Z,19.40
2017-09-10T14:31:53.425Z,19.30
2017-09-10T14:34:21.714Z,19.20
2017-09-10T14:36:49.980Z,19.10
2017-09-10T14:39:18.987Z,18.80
2017-09-10T14:41:47.288Z,18.80
2017-09-10T14:44:15.571Z,18.80
2017-09-10T14:46:43.812Z,18.90
2017-09-10T14:49:12.062Z,18.90
2017-09-10T14:51:41.086Z,19.00
2017-09-10T14:54:09.375Z,19.00
2017-09-10T14:56:37.751Z,19.00
2017-09-10T14:59:06.923Z,19.00
2017-09-10T15:01:35.515Z,19.10
2017-09-10T15:04:03.790Z,19.20
2017-09-10T15:06:32.095Z,19.20
2017-09-10T15:09:00.335Z,19.10
2017-09-10T15:11:28.607Z,18.90
2017-09-10T15:13:56.917Z,18.90
2017-09-10T15:16:25.230Z,18.70
2017-09-10T15:18:53.510Z,18.60
2017-09-10T15:21:22.571Z,18.40
2017-09-10T15:23:50.817Z,18.40
2017-09-10T15:26:19.116Z,18.30
2017-09-10T15:28:47.404Z,18.30
2017-09-10T15:31:16.447Z,18.20
2017-09-10T15:33:44.718Z,18.20
2017-09-10T15:36:13.032Z,18.20
2017-09-10T15:38:41.341Z,18.00
2017-09-10T15:41:09.622Z,17.80
2017-09-10T15:43:39.108Z,17.70
2017-09-10T15:46:07.379Z,17.70
2017-09-10T15:48:35.640Z,17.70
2017-09-10T15:51:03.930Z,17.90
2017-09-10T15:53:32.220Z,17.80
2017-09-10T15:56:00.553Z,17.70
2017-09-10T15:58:28.863Z,17.80
2017-09-10T16:00:57.098Z,17.90
2017-09-10T16:03:25.376Z,17.90
2017-09-10T16:05:53.632Z,17.90
2017-09-10T16:08:21.904Z,18.00
2017-09-10T16:10:50.198Z,17.90
2017-09-10T16:13:18.510Z,17.90
2017-09-10T16:15:46.786Z,17.90
2017-09-10T16:18:15.867Z,17.60
2017-09-10T16:20:44.126Z,17.60
2017-09-10T16:23:12.375Z,17.60
2017-09-10T16:25:40.633Z,17.60
2017-09-10T16:28:08.917Z,17.70
2017-09-10T16:30:37.170Z,17.60
2017-09-10T16:33:05.525Z,17.60
2017-09-10T16:35:33.774Z,17.70
2017-09-10T16:38:02.091Z,17.70
2017-09-10T16:40:30.337Z,17.70
2017-09-10T16:43:00.054Z,17.70
2017-09-10T16:45:28.355Z,17.70
2017-09-10T16:47:57.280Z,17.50
2017-09-10T16:50:25.563Z,17.40
2017-09-10T16:52:53.865Z,17.30
2017-09-10T16:55:22.916Z,17.20
2017-09-10T16:57:51.174Z,17.10
2017-09-10T17:00:19.564Z,17.10
2017-09-10T17:02:48.653Z,17.00
2017-09-10T17:05:16.933Z,17.00
2017-09-10T17:07:45.198Z,16.90
2017-09-10T17:10:13.543Z,16.90
2017-09-10T17:12:42.622Z,16.80
2017-09-10T17:15:10.867Z,16.80
2017-09-10T17:17:39.149Z,16.80
2017-09-10T17:20:08.250Z,16.50
2017-09-10T17:22:37.264Z,16.40
2017-09-10T17:25:05.545Z,16.40
2017-09-10T17:27:34.723Z,16.40
2017-09-10T17:30:03.041Z,16.40
2017-09-10T17:32:32.087Z,16.20
2017-09-10T17:35:02.125Z,16.20
2017-09-10T17:37:30.490Z,16.20
2017-09-10T17:39:59.008Z,16.20
2017-09-10T17:42:27.289Z,16.20
2017-09-10T17:44:55.549Z,16.10
2017-09-10T17:47:23.832Z,16.00
2017-09-10T17:49:52.085Z,16.00
2017-09-10T17:52:20.448Z,15.90
2017-09-10T17:54:48.735Z,15.80
2017-09-10T17:57:17.000Z,15.80
2017-09-10T17:59:45.258Z,15.70
2017-09-10T18:02:13.554Z,15.70
2017-09-10T18:04:41.836Z,15.60
2017-09-10T18:07:10.124Z,15.60
2017-09-10T18:09:39.182Z,15.40
2017-09-10T18:12:07.472Z,15.40
2017-09-10T18:14:35.744Z,15.40
2017-09-10T18:17:04.211Z,15.40
2017-09-10T18:19:33.217Z,15.30
2017-09-10T18:22:01.473Z,15.30
2017-09-10T18:24:29.782Z,15.20
2017-09-10T18:26:58.096Z,15.30
2017-09-10T18:29:26.386Z,15.20
2017-09-10T18:31:54.698Z,15.20
2017-09-10T18:34:22.960Z,15.10
2017-09-10T18:36:51.945Z,15.10
2017-09-10T18:39:20.691Z,15.10
2017-09-10T18:41:48.975Z,15.20
2017-09-10T18:44:17.260Z,15.10
2017-09-10T18:46:47.182Z,15.20
2017-09-10T18:49:15.589Z,15.20
2017-09-10T18:51:43.861Z,15.20
2017-09-10T18:54:12.187Z,15.10
2017-09-10T18:56:40.506Z,15.10
2017-09-10T18:59:09.728Z,15.10
2017-09-10T19:01:38.120Z,15.10
2017-09-10T19:04:08.038Z,15.00
2017-09-10T19:06:36.685Z,15.00
2017-09-10T19:09:05.152Z,14.90
2017-09-10T19:11:34.277Z,15.00
2017-09-10T19:14:03.345Z,15.00
2017-09-10T19:16:32.504Z,14.90
2017-09-10T19:19:00.817Z,14.90
2017-09-10T19:21:29.109Z,14.80
2017-09-10T19:23:57.624Z,14.80
2017-09-10T19:26:25.911Z,14.80
2017-09-10T19:28:54.464Z,14.80
2017-09-10T19:31:23.424Z,14.70
2017-09-10T19:33:51.773Z,14.80
2017-09-10T19:36:20.257Z,14.70
2017-09-10T19:38:48.718Z,14.70
2017-09-10T19:41:17.017Z,14.70
2017-09-10T19:43:45.553Z,14.70
2017-09-10T19:46:15.495Z,14.70
2017-09-10T19:48:43.839Z,14.70
2017-09-10T19:51:12.109Z,14.70
2017-09-10T19:53:40.703Z,14.70
2017-09-10T19:56:09.185Z,14.60
2017-09-10T19:58:38.809Z,14.60
2017-09-10T20:01:07.949Z,14.60
2017-09-10T20:03:36.432Z,14.60
2017-09-10T20:06:04.694Z,14.60
2017-09-10T20:08:32.978Z,14.60
2017-09-10T20:11:01.843Z,14.60
2017-09-10T20:13:32.017Z,14.50
2017-09-10T20:16:00.320Z,14.50
2017-09-10T20:18:28.764Z,14.50
2017-09-10T20:20:57.973Z,14.50
2017-09-10T20:23:26.345Z,14.50
2017-09-10T20:25:55.552Z,14.50
2017-09-10T20:28:24.641Z,14.40
2017-09-10T20:30:53.111Z,14.40
2017-09-10T20:33:21.424Z,14.40
2017-09-10T20:35:49.675Z,14.40
2017-09-10T20:38:17.916Z,14.40
2017-09-10T20:40:46.701Z,14.40
2017-09-10T20:43:15.008Z,14.40
2017-09-10T20:45:43.240Z,14.40
2017-09-10T20:48:11.530Z,14.40
2017-09-10T20:50:39.816Z,14.50
2017-09-10T20:53:08.080Z,14.50
2017-09-10T20:55:36.314Z,14.50
2017-09-10T20:58:04.620Z,14.60
2017-09-10T21:00:33.638Z,14.60
2017-09-10T21:03:01.933Z,14.60
2017-09-10T21:05:30.216Z,14.60
2017-09-10T21:07:58.460Z,14.60
2017-09-10T21:10:26.723Z,14.70
2017-09-10T21:12:54.991Z,14.60
2017-09-10T21:15:23.258Z,14.70
2017-09-10T21:17:51.528Z,14.70
2017-09-10T21:20:19.764Z,14.70
2017-09-10T21:22:48.038Z,14.70
2017-09-10T21:25:16.290Z,14.80
2017-09-10T21:27:44.545Z,14.70
2017-09-10T21:30:13.588Z,14.70
2017-09-10T21:32:41.843Z,14.60
2017-09-10T21:35:10.575Z,14.60
2017-09-10T21:37:38.808Z,14.60
2017-09-10T21:40:07.086Z,14.60
2017-09-10T21:42:35.350Z,14.60
2017-09-10T21:45:03.581Z,14.60
2017-09-10T21:47:31.853Z,14.50
2017-09-10T21:50:00.102Z,14.50
2017-09-10T21:52:29.375Z,14.50
2017-09-10T21:54:58.414Z,14.50
2017-09-10T21:57:26.644Z,14.40
2017-09-10T21:59:54.951Z,14.50
2017-09-10T22:02:23.941Z,14.50
2017-09-10T22:04:52.202Z,14.40
2017-09-10T22:07:20.436Z,14.40
2017-09-10T22:09:48.659Z,14.50
2017-09-10T22:12:16.914Z,14.40
2017-09-10T22:14:46.418Z,14.40
2017-09-10T22:17:16.159Z,14.30
2017-09-10T22:19:44.477Z,14.30
2017-09-10T22:22:12.706Z,14.30
2017-09-10T22:24:41.743Z,14.40
2017-09-10T22:27:10.463Z,14.30
2017-09-10T22:29:38.755Z,14.30
2017-09-10T22:32:06.990Z,14.30
2017-09-10T22:34:36.013Z,14.20
2017-09-10T22:37:04.222Z,14.20
2017-09-10T22:39:32.475Z,14.30
2017-09-10T22:42:01.508Z,14.30
2017-09-10T22:44:29.747Z,14.30
2017-09-10T22:46:58.778Z,14.30
2017-09-10T22:49:27.044Z,14.20
2017-09-10T22:51:55.324Z,14.20
2017-09-10T22:54:23.597Z,14.30
2017-09-10T22:56:51.824Z,14.20
2017-09-10T22:59:20.122Z,14.30
2017-09-10T23:01:48.368Z,14.20
2017-09-10T23:04:16.621Z,14.20
2017-09-10T23:06:44.930Z,14.20
2017-09-10T23:09:13.180Z,14.10
2017-09-10T23:11:41.408Z,14.10
2017-09-10T23:14:10.441Z,14.00
2017-09-10T23:16:38.694Z,14.00
2017-09-10T23:19:07.734Z,14.00
2017-09-10T23:21:35.983Z,13.90
2017-09-10T23:24:04.222Z,13.90
2017-09-10T23:26:32.456Z,14.00
2017-09-10T23:29:00.727Z,14.00
2017-09-10T23:31:28.943Z,13.90
2017-09-10T23:33:57.207Z,13.90
2017-09-10T23:36:25.451Z,13.90
2017-09-10T23:38:53.707Z,13.90
2017-09-10T23:41:21.971Z,13.90
2017-09-10T23:43:50.234Z,13.80
2017-09-10T23:46:18.482Z,13.80
2017-09-10T23:48:46.720Z,13.70
2017-09-10T23:51:14.966Z,13.80
2017-09-10T23:53:43.229Z,13.80
2017-09-10T23:56:11.467Z,13.80
2017-09-10T23:58:39.727Z,13.80
